sensor_id;sensor_type;location;lat;lon;timestamp;P1;durP1;ratioP1;P2;durP2;ratioP2
14342;SDS011;7255;53.596;9.960;2022-10-16T00:05:40;10.02;;;9.02;;
14342;SDS011;7255;53.596;9.960;2022-10-16T00:08:09;10.95;;;8.57;;
14342;SDS011;7255;53.596;9.960;2022-10-16T00:10:43;9.88;;;8.75;;
14342;SDS011;7255;53.596;9.960;2022-10-16T00:13:12;10.18;;;8.30;;
14342;SDS011;7255;53.596;9.960;2022-10-16T00:16:40;10.07;;;8.10;;
14342;SDS011;7255;53.596;9.960;2022-10-16T00:19:07;16.90;;;7.47;;
14342;SDS011;7255;53.596;9.960;2022-10-16T00:21:34;9.25;;;7.65;;
14342;SDS011;7255;53.596;9.960;2022-10-16T00:24:02;11.93;;;6.78;;
14342;SDS011;7255;53.596;9.960;2022-10-16T00:26:31;7.37;;;6.20;;
14342;SDS011;7255;53.596;9.960;2022-10-16T00:29:01;9.35;;;6.60;;
14342;SDS011;7255;53.596;9.960;2022-10-16T00:31:28;6.55;;;5.85;;
14342;SDS011;7255;53.596;9.960;2022-10-16T00:33:56;9.50;;;6.22;;
14342;SDS011;7255;53.596;9.960;2022-10-16T00:36:24;6.05;;;5.03;;
14342;SDS011;7255;53.596;9.960;2022-10-16T00:38:52;5.75;;;4.28;;
14342;SDS011;7255;53.596;9.960;2022-10-16T00:41:20;4.80;;;4.30;;
14342;SDS011;7255;53.596;9.960;2022-10-16T00:43:47;8.20;;;3.97;;
14342;SDS011;7255;53.596;9.960;2022-10-16T00:46:17;8.38;;;4.32;;
14342;SDS011;7255;53.596;9.960;2022-10-16T00:48:48;5.45;;;3.92;;
14342;SDS011;7255;53.596;9.960;2022-10-16T00:51:19;6.45;;;3.78;;
14342;SDS011;7255;53.596;9.960;2022-10-16T00:53:49;6.50;;;4.22;;
14342;SDS011;7255;53.596;9.960;2022-10-16T00:56:16;7.60;;;4.05;;
14342;SDS011;7255;53.596;9.960;2022-10-16T00:58:43;9.52;;;3.58;;
14342;SDS011;7255;53.596;9.960;2022-10-16T01:01:09;5.87;;;3.03;;
14342;SDS011;7255;53.596;9.960;2022-10-16T01:03:36;3.95;;;3.05;;
14342;SDS011;7255;53.596;9.960;2022-10-16T01:06:06;5.93;;;3.55;;
14342;SDS011;7255;53.596;9.960;2022-10-16T01:08:47;4.87;;;3.97;;
14342;SDS011;7255;53.596;9.960;2022-10-16T01:11:27;7.20;;;3.42;;
14342;SDS011;7255;53.596;9.960;2022-10-16T01:14:00;4.47;;;3.10;;
14342;SDS011;7255;53.596;9.960;2022-10-16T01:16:38;7.68;;;3.00;;
14342;SDS011;7255;53.596;9.960;2022-10-16T01:19:13;5.37;;;3.35;;
14342;SDS011;7255;53.596;9.960;2022-10-16T01:21:46;6.28;;;3.03;;
14342;SDS011;7255;53.596;9.960;2022-10-16T01:24:20;6.97;;;2.62;;
14342;SDS011;7255;53.596;9.960;2022-10-16T01:27:06;5.30;;;3.17;;
14342;SDS011;7255;53.596;9.960;2022-10-16T01:29:36;4.22;;;2.78;;
14342;SDS011;7255;53.596;9.960;2022-10-16T01:32:10;2.80;;;2.55;;
14342;SDS011;7255;53.596;9.960;2022-10-16T01:34:42;4.00;;;2.33;;
14342;SDS011;7255;53.596;9.960;2022-10-16T01:37:15;4.07;;;2.50;;
14342;SDS011;7255;53.596;9.960;2022-10-16T01:39:47;4.72;;;2.10;;
14342;SDS011;7255;53.596;9.960;2022-10-16T01:42:18;3.97;;;2.70;;
14342;SDS011;7255;53.596;9.960;2022-10-16T01:44:48;5.35;;;2.60;;
14342;SDS011;7255;53.596;9.960;2022-10-16T01:47:17;4.25;;;2.53;;
14342;SDS011;7255;53.596;9.960;2022-10-16T01:49:45;6.25;;;2.80;;
14342;SDS011;7255;53.596;9.960;2022-10-16T01:52:13;4.32;;;2.65;;
14342;SDS011;7255;53.596;9.960;2022-10-16T01:54:43;3.85;;;2.20;;
14342;SDS011;7255;53.596;9.960;2022-10-16T01:57:13;4.90;;;2.72;;
14342;SDS011;7255;53.596;9.960;2022-10-16T01:59:45;5.78;;;2.17;;
14342;SDS011;7255;53.596;9.960;2022-10-16T02:02:13;5.05;;;2.10;;
14342;SDS011;7255;53.596;9.960;2022-10-16T02:04:42;2.62;;;2.25;;
14342;SDS011;7255;53.596;9.960;2022-10-16T02:07:11;2.85;;;2.20;;
14342;SDS011;7255;53.596;9.960;2022-10-16T02:09:38;2.60;;;2.12;;
14342;SDS011;7255;53.596;9.960;2022-10-16T02:12:06;5.07;;;2.95;;
14342;SDS011;7255;53.596;9.960;2022-10-16T02:14:37;3.20;;;2.30;;
14342;SDS011;7255;53.596;9.960;2022-10-16T02:17:10;2.85;;;2.58;;
14342;SDS011;7255;53.596;9.960;2022-10-16T02:19:38;4.43;;;2.20;;
14342;SDS011;7255;53.596;9.960;2022-10-16T02:22:05;4.20;;;2.12;;
14342;SDS011;7255;53.596;9.960;2022-10-16T02:24:35;3.37;;;2.35;;
14342;SDS011;7255;53.596;9.960;2022-10-16T02:27:09;3.08;;;1.95;;
14342;SDS011;7255;53.596;9.960;2022-10-16T02:29:40;4.37;;;2.53;;
14342;SDS011;7255;53.596;9.960;2022-10-16T02:32:14;4.62;;;2.78;;
14342;SDS011;7255;53.596;9.960;2022-10-16T02:34:43;5.37;;;2.70;;
14342;SDS011;7255;53.596;9.960;2022-10-16T02:37:11;6.25;;;2.28;;
14342;SDS011;7255;53.596;9.960;2022-10-16T02:39:38;5.35;;;2.03;;
14342;SDS011;7255;53.596;9.960;2022-10-16T02:42:09;3.62;;;2.10;;
14342;SDS011;7255;53.596;9.960;2022-10-16T02:44:36;4.20;;;1.90;;
14342;SDS011;7255;53.596;9.960;2022-10-16T02:47:02;4.55;;;2.15;;
14342;SDS011;7255;53.596;9.960;2022-10-16T02:49:29;2.10;;;1.85;;
14342;SDS011;7255;53.596;9.960;2022-10-16T02:51:56;5.90;;;2.28;;
14342;SDS011;7255;53.596;9.960;2022-10-16T02:54:22;1.90;;;1.75;;
14342;SDS011;7255;53.596;9.960;2022-10-16T02:56:48;4.70;;;2.08;;
14342;SDS011;7255;53.596;9.960;2022-10-16T02:59:15;2.45;;;1.92;;
14342;SDS011;7255;53.596;9.960;2022-10-16T03:01:41;4.12;;;1.95;;
14342;SDS011;7255;53.596;9.960;2022-10-16T03:04:08;1.90;;;1.70;;
14342;SDS011;7255;53.596;9.960;2022-10-16T03:06:35;5.68;;;2.17;;
14342;SDS011;7255;53.596;9.960;2022-10-16T03:09:02;2.83;;;1.92;;
14342;SDS011;7255;53.596;9.960;2022-10-16T03:11:28;4.70;;;2.87;;
14342;SDS011;7255;53.596;9.960;2022-10-16T03:13:55;3.65;;;2.20;;
14342;SDS011;7255;53.596;9.960;2022-10-16T03:16:21;6.00;;;2.37;;
14342;SDS011;7255;53.596;9.960;2022-10-16T03:18:47;3.92;;;2.10;;
14342;SDS011;7255;53.596;9.960;2022-10-16T03:21:14;3.47;;;2.53;;
14342;SDS011;7255;53.596;9.960;2022-10-16T03:23:42;5.20;;;2.20;;
14342;SDS011;7255;53.596;9.960;2022-10-16T03:26:08;3.33;;;2.15;;
14342;SDS011;7255;53.596;9.960;2022-10-16T03:28:34;3.47;;;2.50;;
14342;SDS011;7255;53.596;9.960;2022-10-16T03:31:00;2.58;;;2.20;;
14342;SDS011;7255;53.596;9.960;2022-10-16T03:33:27;5.47;;;2.33;;
14342;SDS011;7255;53.596;9.960;2022-10-16T03:35:53;7.20;;;2.30;;
14342;SDS011;7255;53.596;9.960;2022-10-16T03:38:20;8.57;;;2.10;;
14342;SDS011;7255;53.596;9.960;2022-10-16T03:40:48;3.33;;;2.00;;
14342;SDS011;7255;53.596;9.960;2022-10-16T03:43:15;4.35;;;2.50;;
14342;SDS011;7255;53.596;9.960;2022-10-16T03:45:41;5.45;;;2.15;;
14342;SDS011;7255;53.596;9.960;2022-10-16T03:48:08;3.33;;;2.05;;
14342;SDS011;7255;53.596;9.960;2022-10-16T03:50:34;10.20;;;2.35;;
14342;SDS011;7255;53.596;9.960;2022-10-16T03:53:00;5.15;;;2.12;;
14342;SDS011;7255;53.596;9.960;2022-10-16T03:55:27;3.65;;;2.80;;
14342;SDS011;7255;53.596;9.960;2022-10-16T03:57:54;3.30;;;2.60;;
14342;SDS011;7255;53.596;9.960;2022-10-16T04:00:20;5.30;;;1.98;;
14342;SDS011;7255;53.596;9.960;2022-10-16T04:02:47;2.55;;;2.20;;
14342;SDS011;7255;53.596;9.960;2022-10-16T04:05:13;4.22;;;2.12;;
14342;SDS011;7255;53.596;9.960;2022-10-16T04:07:40;3.33;;;2.03;;
14342;SDS011;7255;53.596;9.960;2022-10-16T04:10:06;2.72;;;2.10;;
14342;SDS011;7255;53.596;9.960;2022-10-16T04:12:33;3.53;;;1.95;;
14342;SDS011;7255;53.596;9.960;2022-10-16T04:15:00;2.62;;;1.77;;
14342;SDS011;7255;53.596;9.960;2022-10-16T04:17:27;3.70;;;2.00;;
14342;SDS011;7255;53.596;9.960;2022-10-16T04:19:53;7.87;;;2.12;;
14342;SDS011;7255;53.596;9.960;2022-10-16T04:22:19;4.32;;;1.77;;
14342;SDS011;7255;53.596;9.960;2022-10-16T04:24:46;5.62;;;1.95;;
14342;SDS011;7255;53.596;9.960;2022-10-16T04:27:12;5.20;;;1.80;;
14342;SDS011;7255;53.596;9.960;2022-10-16T04:29:38;3.42;;;2.00;;
14342;SDS011;7255;53.596;9.960;2022-10-16T04:32:06;3.22;;;2.05;;
14342;SDS011;7255;53.596;9.960;2022-10-16T04:34:34;2.03;;;1.70;;
14342;SDS011;7255;53.596;9.960;2022-10-16T04:37:00;4.93;;;2.00;;
14342;SDS011;7255;53.596;9.960;2022-10-16T04:39:27;3.95;;;1.80;;
14342;SDS011;7255;53.596;9.960;2022-10-16T04:41:53;2.70;;;1.85;;
14342;SDS011;7255;53.596;9.960;2022-10-16T04:44:19;5.05;;;1.98;;
14342;SDS011;7255;53.596;9.960;2022-10-16T04:46:45;4.32;;;2.10;;
14342;SDS011;7255;53.596;9.960;2022-10-16T04:49:13;4.57;;;1.98;;
14342;SDS011;7255;53.596;9.960;2022-10-16T04:51:39;3.42;;;2.17;;
14342;SDS011;7255;53.596;9.960;2022-10-16T04:54:06;4.53;;;2.67;;
14342;SDS011;7255;53.596;9.960;2022-10-16T04:56:32;5.10;;;2.30;;
14342;SDS011;7255;53.596;9.960;2022-10-16T04:59:05;3.40;;;2.30;;
14342;SDS011;7255;53.596;9.960;2022-10-16T05:01:31;4.35;;;2.50;;
14342;SDS011;7255;53.596;9.960;2022-10-16T05:03:58;4.80;;;2.80;;
14342;SDS011;7255;53.596;9.960;2022-10-16T05:06:25;6.30;;;2.53;;
14342;SDS011;7255;53.596;9.960;2022-10-16T05:08:51;6.82;;;3.12;;
14342;SDS011;7255;53.596;9.960;2022-10-16T05:11:18;4.22;;;3.03;;
14342;SDS011;7255;53.596;9.960;2022-10-16T05:13:44;9.55;;;3.55;;
14342;SDS011;7255;53.596;9.960;2022-10-16T05:16:10;4.47;;;2.87;;
14342;SDS011;7255;53.596;9.960;2022-10-16T05:18:37;4.20;;;2.83;;
14342;SDS011;7255;53.596;9.960;2022-10-16T05:21:03;4.65;;;3.45;;
14342;SDS011;7255;53.596;9.960;2022-10-16T05:23:32;6.72;;;3.15;;
14342;SDS011;7255;53.596;9.960;2022-10-16T05:25:58;7.20;;;3.15;;
14342;SDS011;7255;53.596;9.960;2022-10-16T05:28:25;4.85;;;3.28;;
14342;SDS011;7255;53.596;9.960;2022-10-16T05:30:53;8.75;;;3.40;;
14342;SDS011;7255;53.596;9.960;2022-10-16T05:33:20;6.87;;;3.60;;
14342;SDS011;7255;53.596;9.960;2022-10-16T05:35:49;7.57;;;3.85;;
14342;SDS011;7255;53.596;9.960;2022-10-16T05:38:15;5.72;;;3.25;;
14342;SDS011;7255;53.596;9.960;2022-10-16T05:40:43;8.45;;;4.00;;
14342;SDS011;7255;53.596;9.960;2022-10-16T05:43:16;7.05;;;3.47;;
14342;SDS011;7255;53.596;9.960;2022-10-16T05:45:42;5.55;;;3.42;;
14342;SDS011;7255;53.596;9.960;2022-10-16T05:48:08;7.35;;;3.58;;
14342;SDS011;7255;53.596;9.960;2022-10-16T05:50:35;7.10;;;3.37;;
14342;SDS011;7255;53.596;9.960;2022-10-16T05:53:01;4.30;;;3.03;;
14342;SDS011;7255;53.596;9.960;2022-10-16T05:55:27;5.90;;;3.45;;
14342;SDS011;7255;53.596;9.960;2022-10-16T05:57:55;4.47;;;3.28;;
14342;SDS011;7255;53.596;9.960;2022-10-16T06:00:22;5.18;;;3.55;;
14342;SDS011;7255;53.596;9.960;2022-10-16T06:02:48;3.62;;;3.00;;
14342;SDS011;7255;53.596;9.960;2022-10-16T06:05:14;5.62;;;3.15;;
14342;SDS011;7255;53.596;9.960;2022-10-16T06:07:40;4.50;;;3.30;;
14342;SDS011;7255;53.596;9.960;2022-10-16T06:10:07;5.87;;;3.00;;
14342;SDS011;7255;53.596;9.960;2022-10-16T06:12:34;4.07;;;3.25;;
14342;SDS011;7255;53.596;9.960;2022-10-16T06:15:02;6.55;;;3.22;;
14342;SDS011;7255;53.596;9.960;2022-10-16T06:17:28;5.28;;;3.05;;
14342;SDS011;7255;53.596;9.960;2022-10-16T06:19:55;7.75;;;3.25;;
14342;SDS011;7255;53.596;9.960;2022-10-16T06:22:21;5.55;;;2.85;;
14342;SDS011;7255;53.596;9.960;2022-10-16T06:24:47;7.30;;;3.03;;
14342;SDS011;7255;53.596;9.960;2022-10-16T06:27:14;5.40;;;2.90;;
14342;SDS011;7255;53.596;9.960;2022-10-16T06:29:41;4.53;;;2.80;;
14342;SDS011;7255;53.596;9.960;2022-10-16T06:32:09;5.45;;;3.42;;
14342;SDS011;7255;53.596;9.960;2022-10-16T06:34:35;4.60;;;3.28;;
14342;SDS011;7255;53.596;9.960;2022-10-16T06:37:01;3.95;;;3.28;;
14342;SDS011;7255;53.596;9.960;2022-10-16T06:39:28;6.78;;;4.25;;
14342;SDS011;7255;53.596;9.960;2022-10-16T06:41:54;4.70;;;3.17;;
14342;SDS011;7255;53.596;9.960;2022-10-16T06:44:21;4.68;;;3.60;;
14342;SDS011;7255;53.596;9.960;2022-10-16T06:46:47;7.70;;;2.90;;
14342;SDS011;7255;53.596;9.960;2022-10-16T06:49:15;6.65;;;2.95;;
14342;SDS011;7255;53.596;9.960;2022-10-16T06:51:46;7.97;;;3.45;;
14342;SDS011;7255;53.596;9.960;2022-10-16T06:54:12;7.75;;;3.40;;
14342;SDS011;7255;53.596;9.960;2022-10-16T06:56:41;4.93;;;2.80;;
14342;SDS011;7255;53.596;9.960;2022-10-16T06:59:07;4.87;;;3.33;;
14342;SDS011;7255;53.596;9.960;2022-10-16T07:01:33;4.85;;;3.25;;
14342;SDS011;7255;53.596;9.960;2022-10-16T07:04:00;5.18;;;3.45;;
14342;SDS011;7255;53.596;9.960;2022-10-16T07:06:30;5.28;;;3.30;;
14342;SDS011;7255;53.596;9.960;2022-10-16T07:08:57;5.15;;;3.35;;
14342;SDS011;7255;53.596;9.960;2022-10-16T07:11:24;3.80;;;3.00;;
14342;SDS011;7255;53.596;9.960;2022-10-16T07:13:50;5.03;;;3.30;;
14342;SDS011;7255;53.596;9.960;2022-10-16T07:16:18;5.12;;;3.28;;
14342;SDS011;7255;53.596;9.960;2022-10-16T07:18:45;5.00;;;3.00;;
14342;SDS011;7255;53.596;9.960;2022-10-16T07:21:14;3.87;;;3.47;;
14342;SDS011;7255;53.596;9.960;2022-10-16T07:23:44;3.33;;;3.03;;
14342;SDS011;7255;53.596;9.960;2022-10-16T07:26:10;4.65;;;3.08;;
14342;SDS011;7255;53.596;9.960;2022-10-16T07:28:37;3.83;;;3.35;;
14342;SDS011;7255;53.596;9.960;2022-10-16T07:31:05;6.03;;;3.05;;
14342;SDS011;7255;53.596;9.960;2022-10-16T07:33:33;5.57;;;3.28;;
14342;SDS011;7255;53.596;9.960;2022-10-16T07:36:00;7.15;;;3.65;;
14342;SDS011;7255;53.596;9.960;2022-10-16T07:38:27;4.90;;;3.00;;
14342;SDS011;7255;53.596;9.960;2022-10-16T07:40:58;4.97;;;3.12;;
14342;SDS011;7255;53.596;9.960;2022-10-16T07:43:25;4.80;;;3.30;;
14342;SDS011;7255;53.596;9.960;2022-10-16T07:45:52;6.37;;;3.47;;
14342;SDS011;7255;53.596;9.960;2022-10-16T07:48:20;6.12;;;3.47;;
14342;SDS011;7255;53.596;9.960;2022-10-16T07:50:47;9.13;;;3.80;;
14342;SDS011;7255;53.596;9.960;2022-10-16T07:53:14;4.15;;;3.37;;
14342;SDS011;7255;53.596;9.960;2022-10-16T07:55:40;6.25;;;3.62;;
14342;SDS011;7255;53.596;9.960;2022-10-16T07:58:08;5.87;;;3.15;;
14342;SDS011;7255;53.596;9.960;2022-10-16T08:00:35;4.93;;;3.53;;
14342;SDS011;7255;53.596;9.960;2022-10-16T08:03:02;3.53;;;3.17;;
14342;SDS011;7255;53.596;9.960;2022-10-16T08:05:29;5.62;;;2.75;;
14342;SDS011;7255;53.596;9.960;2022-10-16T08:07:58;7.85;;;3.92;;
14342;SDS011;7255;53.596;9.960;2022-10-16T08:10:25;4.35;;;3.03;;
14342;SDS011;7255;53.596;9.960;2022-10-16T08:12:53;4.65;;;3.10;;
14342;SDS011;7255;53.596;9.960;2022-10-16T08:15:21;5.10;;;3.50;;
14342;SDS011;7255;53.596;9.960;2022-10-16T08:17:53;7.32;;;3.45;;
14342;SDS011;7255;53.596;9.960;2022-10-16T08:20:20;3.45;;;3.10;;
14342;SDS011;7255;53.596;9.960;2022-10-16T08:22:47;6.20;;;3.75;;
14342;SDS011;7255;53.596;9.960;2022-10-16T08:25:13;7.28;;;3.45;;
14342;SDS011;7255;53.596;9.960;2022-10-16T08:27:40;5.28;;;3.67;;
14342;SDS011;7255;53.596;9.960;2022-10-16T08:30:07;4.47;;;3.30;;
14342;SDS011;7255;53.596;9.960;2022-10-16T08:32:35;6.32;;;3.45;;
14342;SDS011;7255;53.596;9.960;2022-10-16T08:35:02;10.55;;;4.00;;
14342;SDS011;7255;53.596;9.960;2022-10-16T08:37:29;5.18;;;3.40;;
14342;SDS011;7255;53.596;9.960;2022-10-16T08:39:56;7.75;;;3.28;;
14342;SDS011;7255;53.596;9.960;2022-10-16T08:42:26;5.82;;;3.15;;
14342;SDS011;7255;53.596;9.960;2022-10-16T08:45:08;4.70;;;2.85;;
14342;SDS011;7255;53.596;9.960;2022-10-16T08:47:49;3.87;;;2.90;;
14342;SDS011;7255;53.596;9.960;2022-10-16T08:50:27;5.97;;;3.00;;
14342;SDS011;7255;53.596;9.960;2022-10-16T08:52:55;4.10;;;2.85;;
14342;SDS011;7255;53.596;9.960;2022-10-16T08:55:27;6.82;;;2.97;;
14342;SDS011;7255;53.596;9.960;2022-10-16T08:57:58;5.32;;;3.10;;
14342;SDS011;7255;53.596;9.960;2022-10-16T09:00:25;6.07;;;2.65;;
14342;SDS011;7255;53.596;9.960;2022-10-16T09:02:55;5.45;;;2.55;;
14342;SDS011;7255;53.596;9.960;2022-10-16T09:05:38;3.12;;;2.65;;
14342;SDS011;7255;53.596;9.960;2022-10-16T09:08:16;3.78;;;2.70;;
14342;SDS011;7255;53.596;9.960;2022-10-16T09:10:51;3.58;;;2.30;;
14342;SDS011;7255;53.596;9.960;2022-10-16T09:13:26;3.50;;;3.05;;
14342;SDS011;7255;53.596;9.960;2022-10-16T09:15:58;3.25;;;2.22;;
14342;SDS011;7255;53.596;9.960;2022-10-16T09:18:40;2.87;;;2.00;;
14342;SDS011;7255;53.596;9.960;2022-10-16T09:21:09;5.00;;;2.65;;
14342;SDS011;7255;53.596;9.960;2022-10-16T09:23:40;2.90;;;2.10;;
14342;SDS011;7255;53.596;9.960;2022-10-16T09:26:09;2.37;;;1.90;;
14342;SDS011;7255;53.596;9.960;2022-10-16T09:28:37;4.12;;;2.00;;
14342;SDS011;7255;53.596;9.960;2022-10-16T09:31:03;3.72;;;2.05;;
14342;SDS011;7255;53.596;9.960;2022-10-16T09:33:32;5.43;;;1.95;;
14342;SDS011;7255;53.596;9.960;2022-10-16T09:36:03;3.90;;;1.60;;
14342;SDS011;7255;53.596;9.960;2022-10-16T09:38:32;6.12;;;2.03;;
14342;SDS011;7255;53.596;9.960;2022-10-16T09:41:01;3.00;;;1.70;;
14342;SDS011;7255;53.596;9.960;2022-10-16T09:43:32;3.28;;;1.75;;
14342;SDS011;7255;53.596;9.960;2022-10-16T09:46:03;3.55;;;1.67;;
14342;SDS011;7255;53.596;9.960;2022-10-16T09:48:32;3.35;;;1.92;;
14342;SDS011;7255;53.596;9.960;2022-10-16T09:51:02;4.55;;;1.65;;
14342;SDS011;7255;53.596;9.960;2022-10-16T09:53:38;1.95;;;1.40;;
14342;SDS011;7255;53.596;9.960;2022-10-16T09:56:06;3.33;;;1.37;;
14342;SDS011;7255;53.596;9.960;2022-10-16T09:58:32;4.57;;;1.60;;
14342;SDS011;7255;53.596;9.960;2022-10-16T10:00:59;4.18;;;2.12;;
14342;SDS011;7255;53.596;9.960;2022-10-16T10:03:36;3.08;;;1.67;;
14342;SDS011;7255;53.596;9.960;2022-10-16T10:06:15;2.45;;;1.50;;
14342;SDS011;7255;53.596;9.960;2022-10-16T10:08:54;3.15;;;1.70;;
14342;SDS011;7255;53.596;9.960;2022-10-16T10:11:40;3.85;;;2.15;;
14342;SDS011;7255;53.596;9.960;2022-10-16T10:14:13;4.72;;;1.73;;
14342;SDS011;7255;53.596;9.960;2022-10-16T10:16:43;5.12;;;1.40;;
14342;SDS011;7255;53.596;9.960;2022-10-16T10:19:12;2.12;;;1.65;;
14342;SDS011;7255;53.596;9.960;2022-10-16T10:21:41;4.15;;;1.75;;
14342;SDS011;7255;53.596;9.960;2022-10-16T10:24:09;3.58;;;1.77;;
14342;SDS011;7255;53.596;9.960;2022-10-16T10:26:36;2.60;;;1.60;;
14342;SDS011;7255;53.596;9.960;2022-10-16T10:29:05;2.83;;;2.00;;
14342;SDS011;7255;53.596;9.960;2022-10-16T10:31:42;3.90;;;1.85;;
14342;SDS011;7255;53.596;9.960;2022-10-16T10:34:17;4.25;;;1.60;;
14342;SDS011;7255;53.596;9.960;2022-10-16T10:37:07;6.22;;;1.80;;
14342;SDS011;7255;53.596;9.960;2022-10-16T10:39:42;5.15;;;1.90;;
14342;SDS011;7255;53.596;9.960;2022-10-16T10:42:20;5.97;;;1.45;;
14342;SDS011;7255;53.596;9.960;2022-10-16T10:45:00;2.47;;;1.70;;
14342;SDS011;7255;53.596;9.960;2022-10-16T10:47:40;4.15;;;1.70;;
14342;SDS011;7255;53.596;9.960;2022-10-16T10:50:14;5.28;;;1.75;;
14342;SDS011;7255;53.596;9.960;2022-10-16T10:52:54;3.50;;;1.65;;
14342;SDS011;7255;53.596;9.960;2022-10-16T10:55:28;3.80;;;1.80;;
14342;SDS011;7255;53.596;9.960;2022-10-16T10:58:10;3.65;;;1.67;;
14342;SDS011;7255;53.596;9.960;2022-10-16T11:00:50;2.70;;;1.30;;
14342;SDS011;7255;53.596;9.960;2022-10-16T11:03:27;2.53;;;1.17;;
14342;SDS011;7255;53.596;9.960;2022-10-16T11:06:04;3.87;;;1.35;;
14342;SDS011;7255;53.596;9.960;2022-10-16T11:08:36;4.72;;;1.62;;
14342;SDS011;7255;53.596;9.960;2022-10-16T11:11:08;2.35;;;1.30;;
14342;SDS011;7255;53.596;9.960;2022-10-16T11:13:42;2.35;;;1.30;;
14342;SDS011;7255;53.596;9.960;2022-10-16T11:16:18;6.85;;;1.52;;
14342;SDS011;7255;53.596;9.960;2022-10-16T11:18:56;4.90;;;1.20;;
14342;SDS011;7255;53.596;9.960;2022-10-16T11:21:27;2.55;;;1.30;;
14342;SDS011;7255;53.596;9.960;2022-10-16T11:23:59;5.55;;;1.30;;
14342;SDS011;7255;53.596;9.960;2022-10-16T11:26:33;1.98;;;1.10;;
14342;SDS011;7255;53.596;9.960;2022-10-16T11:29:02;3.17;;;1.17;;
14342;SDS011;7255;53.596;9.960;2022-10-16T11:31:36;5.32;;;1.33;;
14342;SDS011;7255;53.596;9.960;2022-10-16T11:34:06;1.52;;;1.15;;
14342;SDS011;7255;53.596;9.960;2022-10-16T11:36:42;3.47;;;1.10;;
14342;SDS011;7255;53.596;9.960;2022-10-16T11:39:19;3.42;;;1.20;;
14342;SDS011;7255;53.596;9.960;2022-10-16T11:41:47;2.97;;;1.40;;
14342;SDS011;7255;53.596;9.960;2022-10-16T11:44:20;5.30;;;1.83;;
14342;SDS011;7255;53.596;9.960;2022-10-16T11:47:01;2.95;;;1.05;;
14342;SDS011;7255;53.596;9.960;2022-10-16T11:49:34;2.40;;;1.33;;
14342;SDS011;7255;53.596;9.960;2022-10-16T11:52:08;2.83;;;1.48;;
14342;SDS011;7255;53.596;9.960;2022-10-16T11:54:43;5.20;;;1.40;;
14342;SDS011;7255;53.596;9.960;2022-10-16T11:57:16;2.78;;;1.10;;
14342;SDS011;7255;53.596;9.960;2022-10-16T11:59:46;4.43;;;1.33;;
14342;SDS011;7255;53.596;9.960;2022-10-16T12:02:25;3.90;;;1.60;;
14342;SDS011;7255;53.596;9.960;2022-10-16T12:04:59;5.37;;;1.42;;
14342;SDS011;7255;53.596;9.960;2022-10-16T12:07:46;3.58;;;1.35;;
14342;SDS011;7255;53.596;9.960;2022-10-16T12:10:21;4.28;;;1.42;;
14342;SDS011;7255;53.596;9.960;2022-10-16T12:12:51;4.53;;;1.42;;
14342;SDS011;7255;53.596;9.960;2022-10-16T12:15:19;1.62;;;0.95;;
14342;SDS011;7255;53.596;9.960;2022-10-16T12:17:48;4.82;;;1.20;;
14342;SDS011;7255;53.596;9.960;2022-10-16T12:20:19;4.22;;;1.40;;
14342;SDS011;7255;53.596;9.960;2022-10-16T12:22:53;2.83;;;1.33;;
14342;SDS011;7255;53.596;9.960;2022-10-16T12:25:23;6.70;;;1.20;;
14342;SDS011;7255;53.596;9.960;2022-10-16T12:27:57;2.30;;;1.00;;
14342;SDS011;7255;53.596;9.960;2022-10-16T12:30:28;4.47;;;1.50;;
14342;SDS011;7255;53.596;9.960;2022-10-16T12:32:57;3.45;;;1.60;;
14342;SDS011;7255;53.596;9.960;2022-10-16T12:35:26;5.10;;;1.30;;
14342;SDS011;7255;53.596;9.960;2022-10-16T12:38:04;1.58;;;1.30;;
14342;SDS011;7255;53.596;9.960;2022-10-16T12:40:34;5.78;;;1.30;;
14342;SDS011;7255;53.596;9.960;2022-10-16T12:43:13;3.58;;;1.33;;
14342;SDS011;7255;53.596;9.960;2022-10-16T12:45:58;2.85;;;1.10;;
14342;SDS011;7255;53.596;9.960;2022-10-16T12:48:26;3.42;;;1.25;;
14342;SDS011;7255;53.596;9.960;2022-10-16T12:50:53;4.20;;;1.45;;
14342;SDS011;7255;53.596;9.960;2022-10-16T12:53:20;2.35;;;1.30;;
14342;SDS011;7255;53.596;9.960;2022-10-16T12:55:52;2.75;;;1.42;;
14342;SDS011;7255;53.596;9.960;2022-10-16T12:58:40;4.05;;;1.45;;
14342;SDS011;7255;53.596;9.960;2022-10-16T13:01:20;2.90;;;1.20;;
14342;SDS011;7255;53.596;9.960;2022-10-16T13:04:18;3.37;;;1.25;;
14342;SDS011;7255;53.596;9.960;2022-10-16T13:06:57;5.22;;;1.33;;
14342;SDS011;7255;53.596;9.960;2022-10-16T13:09:36;3.22;;;1.10;;
14342;SDS011;7255;53.596;9.960;2022-10-16T13:12:22;4.07;;;1.20;;
14342;SDS011;7255;53.596;9.960;2022-10-16T13:15:09;4.47;;;1.20;;
14342;SDS011;7255;53.596;9.960;2022-10-16T13:17:47;2.78;;;1.27;;
14342;SDS011;7255;53.596;9.960;2022-10-16T13:20:21;3.00;;;1.35;;
14342;SDS011;7255;53.596;9.960;2022-10-16T13:22:57;5.12;;;1.30;;
14342;SDS011;7255;53.596;9.960;2022-10-16T13:25:40;5.20;;;1.40;;
14342;SDS011;7255;53.596;9.960;2022-10-16T13:28:16;3.58;;;1.20;;
14342;SDS011;7255;53.596;9.960;2022-10-16T13:30:51;4.40;;;1.35;;
14342;SDS011;7255;53.596;9.960;2022-10-16T13:33:19;2.50;;;1.30;;
14342;SDS011;7255;53.596;9.960;2022-10-16T13:35:50;9.77;;;1.50;;
14342;SDS011;7255;53.596;9.960;2022-10-16T13:38:19;6.55;;;1.60;;
14342;SDS011;7255;53.596;9.960;2022-10-16T13:40:50;3.67;;;1.60;;
14342;SDS011;7255;53.596;9.960;2022-10-16T13:43:20;3.28;;;1.27;;
14342;SDS011;7255;53.596;9.960;2022-10-16T13:45:53;7.20;;;1.40;;
14342;SDS011;7255;53.596;9.960;2022-10-16T13:48:23;5.87;;;1.40;;
14342;SDS011;7255;53.596;9.960;2022-10-16T13:51:00;3.05;;;1.08;;
14342;SDS011;7255;53.596;9.960;2022-10-16T13:53:29;6.68;;;1.33;;
14342;SDS011;7255;53.596;9.960;2022-10-16T13:55:56;4.85;;;1.35;;
14342;SDS011;7255;53.596;9.960;2022-10-16T13:58:26;3.62;;;1.50;;
14342;SDS011;7255;53.596;9.960;2022-10-16T14:00:53;3.65;;;1.60;;
14342;SDS011;7255;53.596;9.960;2022-10-16T14:03:21;3.20;;;1.27;;
14342;SDS011;7255;53.596;9.960;2022-10-16T14:05:48;7.60;;;1.23;;
14342;SDS011;7255;53.596;9.960;2022-10-16T14:08:16;6.28;;;1.60;;
14342;SDS011;7255;53.596;9.960;2022-10-16T14:10:42;3.55;;;1.33;;
14342;SDS011;7255;53.596;9.960;2022-10-16T14:13:14;3.17;;;1.35;;
14342;SDS011;7255;53.596;9.960;2022-10-16T14:15:46;3.47;;;1.35;;
14342;SDS011;7255;53.596;9.960;2022-10-16T14:18:18;5.70;;;1.50;;
14342;SDS011;7255;53.596;9.960;2022-10-16T14:20:46;4.95;;;1.37;;
14342;SDS011;7255;53.596;9.960;2022-10-16T14:23:19;2.90;;;1.20;;
14342;SDS011;7255;53.596;9.960;2022-10-16T14:25:48;2.30;;;1.02;;
14342;SDS011;7255;53.596;9.960;2022-10-16T14:28:15;4.35;;;1.27;;
14342;SDS011;7255;53.596;9.960;2022-10-16T14:30:51;3.35;;;1.33;;
14342;SDS011;7255;53.596;9.960;2022-10-16T14:33:20;6.43;;;1.45;;
14342;SDS011;7255;53.596;9.960;2022-10-16T14:35:57;5.70;;;1.65;;
14342;SDS011;7255;53.596;9.960;2022-10-16T14:38:26;6.00;;;1.27;;
14342;SDS011;7255;53.596;9.960;2022-10-16T14:40:54;5.10;;;1.58;;
14342;SDS011;7255;53.596;9.960;2022-10-16T14:43:25;5.30;;;2.20;;
14342;SDS011;7255;53.596;9.960;2022-10-16T14:45:58;4.03;;;1.37;;
14342;SDS011;7255;53.596;9.960;2022-10-16T14:48:25;4.35;;;1.20;;
14342;SDS011;7255;53.596;9.960;2022-10-16T14:50:51;2.97;;;1.45;;
14342;SDS011;7255;53.596;9.960;2022-10-16T14:53:18;3.37;;;2.05;;
14342;SDS011;7255;53.596;9.960;2022-10-16T14:55:44;3.83;;;1.30;;
14342;SDS011;7255;53.596;9.960;2022-10-16T14:58:13;3.95;;;1.50;;
14342;SDS011;7255;53.596;9.960;2022-10-16T15:00:41;3.15;;;1.67;;
14342;SDS011;7255;53.596;9.960;2022-10-16T15:03:09;5.60;;;1.55;;
14342;SDS011;7255;53.596;9.960;2022-10-16T15:05:36;4.62;;;1.55;;
14342;SDS011;7255;53.596;9.960;2022-10-16T15:08:02;5.07;;;1.55;;
14342;SDS011;7255;53.596;9.960;2022-10-16T15:10:30;3.80;;;1.50;;
14342;SDS011;7255;53.596;9.960;2022-10-16T15:12:57;4.30;;;1.30;;
14342;SDS011;7255;53.596;9.960;2022-10-16T15:15:30;4.65;;;1.58;;
14342;SDS011;7255;53.596;9.960;2022-10-16T15:17:59;4.28;;;1.48;;
14342;SDS011;7255;53.596;9.960;2022-10-16T15:20:29;4.18;;;1.98;;
14342;SDS011;7255;53.596;9.960;2022-10-16T15:22:58;3.47;;;1.50;;